Who's Online?
Quick Chart Search


KBUR 190253Z 00000KT 10SM CLR 23/11 A2989 RMK AO2 SLP109 T02280106 53001
KLAS 190256Z 20004KT 10SM FEW120 BKN150 BKN220 25/M08 A2994 RMK AO2 SLP122 T02501078 56005
KLAX 190253Z 24009KT 10SM CLR 20/16 A2989 RMK AO2 SLP120 T02000161 53001
KLGB 190253Z 30009KT 10SM CLR 23/11 A2990 RMK AO2 SLP123 T02330111 53006
KONT 190253Z 25005KT 10SM CLR 24/12 A2991 RMK AO2 SLP116 T02440117 53006
KPSP 190253Z 30006KT 10SM CLR 32/08 A2982 RMK AO2 SLP094 T03220078 53004
KSAN 190258Z 17003KT 7SM FEW008 SCT013 BKN250 21/18 A2994 RMK AO2 T02060183
KSBA 190253Z 15009KT 10SM CLR 21/14 A2986 RMK AO2 SLP111 T02060139 53005
KSNA 190253Z 16005KT 10SM CLR 22/18 A2990 RMK AO2 SLP123 T02170178 53005


KBUR 2017/10/18 18:42
TAF KBUR 181739Z 1818/1918 15003KT P6SM SKC
FM182000 18008KT P6SM SCT200
FM190100 13006KT P6SM SKC
FM190400 VRB03KT P6SM SKC
FM191400 VRB03KT 5SM HZ SKC
KLAS 2017/10/19 03:12
TAF
AMD KLAS 190309Z 1903/2006 VRB04KT P6SM BKN120
FM190600 23006KT P6SM BKN120
FM191000 23006KT P6SM SCT120 SCT250
FM191600 VRB05KT P6SM FEW120 SCT250
FM191900 08006KT P6SM SCT250
FM200000 20013KT P6SM SCT250
KLAX 2017/10/18 21:59
TAF
AMD KLAX 182059Z 1821/1924 27013KT P6SM FEW045 SCT080
FM190300 VRB03KT P6SM SKC
FM190700 VRB03KT 2SM BR OVC004
FM191400 VRB03KT 3SM BR OVC006
FM191800 26006KT 4SM HZ SCT006
FM192000 26012KT 5SM HZ SKC
KLGB 2017/10/18 18:42
TAF KLGB 181739Z 1818/1918 13006KT P6SM SKC
FM181900 19008KT P6SM SCT200
FM182300 29008KT P6SM SCT200
FM190400 VRB03KT P6SM SKC
FM190700 VRB03KT 3SM BR OVC005
KONT 2017/10/18 18:22
TAF KONT 181720Z 1818/1924 VRB04KT P6SM SCT200
FM182100 25010KT P6SM SCT200
FM190400 VRB04KT P6SM SKC
FM192100 25010KT P6SM SKC
KPSP 2017/10/18 18:22
TAF KPSP 181720Z 1818/1918 VRB05KT P6SM SCT200
FM190100 33009KT P6SM SKC
FM190600 VRB05KT P6SM SKC
KSAN 2017/10/19 03:12
KSAN 190308Z 1903/2006 VRB04KT P6SM SCT008
FM190600 VRB03KT P6SM OVC009
FM191700 VRB04KT P6SM SCT012
FM191900 27008KT P6SM FEW015
FM200200 VRB04KT P6SM SCT018
KSBA 2017/10/18 18:42
TAF KSBA 181739Z 1818/1918 15004KT P6SM SKC
FM182000 24008KT P6SM SCT200
FM190300 35006KT P6SM SKC
KSNA 2017/10/18 18:22
TAF KSNA 181720Z 1818/1918 VRB04KT P6SM SCT200
FM181900 21008KT P6SM SCT200
FM190200 VRB04KT P6SM SCT005
FM190900 VRB04KT P6SM BKN006
FM191700 VRB04KT P6SM SCT008

SW CONUS Visible

Loop: 3hr, 12hrHi-Res

SW CONUS Enhanced Infrared

Loop: 3hr, 12hrHi-Res

CONUS Water Vapor

Loop: 3hr, 12hrHi-Res

300

500


700

850


Surface Map

Back to Top